CGNBR ENBO-ESUT

Flight info

Callsign CGNBR
Flight time N/A
Altitude 2500
Route ENBO ENRG ENRA ESUT
Aircraft BE36/L-V/N

Departure

Time N/A
Airport Bodø Airport (ENBO)

Arrival

Time 2026-04-14 21:17
Airport Hemavan Airport (ESUT)
Time Latitude Longitude Altitude Speed Heading
2026-04-14 20:30 67.07804 15.39892 4008 ft 178 kts 194°
2026-04-14 20:30 67.06591 15.39214 4010 ft 179 kts 193°
2026-04-14 20:30 67.05371 15.38537 4009 ft 179 kts 193°
2026-04-14 20:30 67.04144 15.37852 4010 ft 180 kts 194°
2026-04-14 20:31 67.02921 15.37170 4004 ft 179 kts 194°
2026-04-14 20:31 67.01703 15.36495 4005 ft 178 kts 194°
2026-04-14 20:31 67.00494 15.35822 4006 ft 178 kts 193°
2026-04-14 20:31 66.99293 15.35157 4005 ft 178 kts 194°
2026-04-14 20:32 66.98076 15.34483 4005 ft 179 kts 194°
2026-04-14 20:32 66.96865 15.33811 4003 ft 178 kts 194°
2026-04-14 20:32 66.95655 15.33141 4003 ft 177 kts 194°
2026-04-14 20:32 66.94448 15.32474 4002 ft 177 kts 194°
2026-04-14 20:33 66.93242 15.31811 4003 ft 177 kts 194°
2026-04-14 20:33 66.92032 15.31143 4000 ft 177 kts 194°
2026-04-14 20:33 66.90851 15.30485 3999 ft 175 kts 194°
2026-04-14 20:34 66.88442 15.29689 3996 ft 178 kts 170°
2026-04-14 20:34 66.87294 15.30911 3999 ft 181 kts 150°
2026-04-14 20:34 66.86207 15.32547 3990 ft 182 kts 151°
2026-04-14 20:34 66.85113 15.34157 3994 ft 181 kts 151°
2026-04-14 20:35 66.84020 15.35763 3999 ft 182 kts 151°
2026-04-14 20:35 66.82926 15.37367 4000 ft 181 kts 151°
2026-04-14 20:35 66.81833 15.38969 3994 ft 181 kts 151°
2026-04-14 20:35 66.80745 15.40568 3995 ft 181 kts 151°
2026-04-14 20:36 66.79670 15.42140 3991 ft 180 kts 151°
2026-04-14 20:36 66.78597 15.43707 3991 ft 176 kts 151°
2026-04-14 20:36 66.77541 15.45245 4000 ft 175 kts 151°
2026-04-14 20:36 66.76459 15.46721 3988 ft 177 kts 161°
2026-04-14 20:37 66.75255 15.47037 3996 ft 173 kts 187°
2026-04-14 20:37 66.74101 15.46326 3998 ft 169 kts 197°
2026-04-14 20:37 66.72982 15.45554 3993 ft 164 kts 197°
2026-04-14 20:37 66.71884 15.44805 3986 ft 163 kts 195°
2026-04-14 20:38 66.70825 15.44102 3991 ft 156 kts 196°
2026-04-14 20:38 66.69783 15.43404 3916 ft 154 kts 197°
2026-04-14 20:38 66.68750 15.42696 3837 ft 153 kts 197°
2026-04-14 20:38 66.67723 15.41991 3760 ft 153 kts 197°
2026-04-14 20:39 66.66699 15.41291 3683 ft 152 kts 197°
2026-04-14 20:39 66.65674 15.40591 3608 ft 153 kts 197°
2026-04-14 20:39 66.64649 15.39893 3532 ft 153 kts 197°
2026-04-14 20:39 66.63630 15.39200 3503 ft 149 kts 197°
2026-04-14 20:40 66.62959 15.38741 3500 ft 147 kts 197°
2026-04-14 20:40 66.61993 15.38086 3496 ft 144 kts 197°
2026-04-14 20:40 66.61028 15.37437 3492 ft 142 kts 197°
2026-04-14 20:40 66.60075 15.36788 3493 ft 141 kts 197°
2026-04-14 20:41 66.59130 15.36144 3494 ft 140 kts 197°
2026-04-14 20:41 66.58188 15.35499 3498 ft 138 kts 200°
2026-04-14 20:41 66.57337 15.34626 3489 ft 128 kts 213°
2026-04-14 20:41 66.56573 15.33573 3488 ft 123 kts 211°
2026-04-14 20:42 66.55827 15.32591 3491 ft 120 kts 211°
2026-04-14 20:42 66.55105 15.31636 3492 ft 118 kts 211°
2026-04-14 20:42 66.53662 15.29746 3494 ft 115 kts 210°
2026-04-14 20:43 66.52956 15.28815 3489 ft 114 kts 211°
2026-04-14 20:43 66.52261 15.27902 3491 ft 112 kts 211°
2026-04-14 20:43 66.51570 15.26993 3487 ft 112 kts 211°
2026-04-14 20:43 66.50888 15.26098 3497 ft 110 kts 210°
2026-04-14 20:44 66.50213 15.25204 3491 ft 110 kts 211°
2026-04-14 20:44 66.49542 15.24317 3492 ft 109 kts 211°
2026-04-14 20:44 66.48880 15.23455 3495 ft 108 kts 210°
2026-04-14 20:44 66.48207 15.22579 3494 ft 109 kts 210°
2026-04-14 20:45 66.47541 15.21705 3497 ft 108 kts 210°
2026-04-14 20:45 66.46873 15.20827 3496 ft 109 kts 210°
2026-04-14 20:45 66.46194 15.19938 3500 ft 111 kts 210°
2026-04-14 20:45 66.45600 15.18770 3507 ft 108 kts 242°
2026-04-14 20:46 66.45425 15.16952 3499 ft 110 kts 274°
2026-04-14 20:46 66.45740 15.15228 3496 ft 112 kts 306°
2026-04-14 20:46 66.46216 15.13669 3505 ft 116 kts 304°
2026-04-14 20:46 66.46708 15.12043 3509 ft 119 kts 305°
2026-04-14 20:47 66.47211 15.10383 3506 ft 121 kts 305°
2026-04-14 20:47 66.47721 15.08721 3513 ft 119 kts 306°
2026-04-14 20:47 66.48222 15.07081 3506 ft 119 kts 305°
2026-04-14 20:47 66.48728 15.05412 3506 ft 122 kts 305°
2026-04-14 20:48 66.49241 15.03707 3507 ft 123 kts 306°
2026-04-14 20:48 66.49765 15.01999 3505 ft 123 kts 305°
2026-04-14 20:48 66.50280 15.00307 3504 ft 121 kts 306°
2026-04-14 20:48 66.50788 14.98636 3507 ft 120 kts 305°
2026-04-14 20:49 66.51085 14.96786 3497 ft 117 kts 271°
2026-04-14 20:49 66.50893 14.94862 3498 ft 114 kts 238°
2026-04-14 20:49 66.50393 14.93316 3498 ft 114 kts 233°
2026-04-14 20:49 66.49902 14.91763 3491 ft 113 kts 232°
2026-04-14 20:50 66.49410 14.90232 3492 ft 113 kts 232°
2026-04-14 20:50 66.48912 14.88689 3499 ft 115 kts 232°
2026-04-14 20:50 66.48407 14.87127 3496 ft 116 kts 232°
2026-04-14 20:50 66.47902 14.85562 3498 ft 114 kts 232°
2026-04-14 20:51 66.47409 14.84038 3496 ft 111 kts 232°
2026-04-14 20:51 66.46928 14.82548 3495 ft 108 kts 233°
2026-04-14 20:51 66.46453 14.81080 3494 ft 106 kts 233°
2026-04-14 20:51 66.45990 14.79652 3489 ft 104 kts 232°
2026-04-14 20:52 66.45537 14.78253 3488 ft 102 kts 232°
2026-04-14 20:52 66.45100 14.76907 3491 ft 99 kts 232°
2026-04-14 20:52 66.44658 14.75541 3495 ft 103 kts 232°
2026-04-14 20:52 66.44202 14.74138 3501 ft 107 kts 232°
2026-04-14 20:53 66.43727 14.72682 3511 ft 109 kts 232°
2026-04-14 20:53 66.43249 14.71210 3507 ft 111 kts 232°
2026-04-14 20:53 66.42755 14.69693 3509 ft 115 kts 232°
2026-04-14 20:53 66.42246 14.68133 3506 ft 116 kts 232°
2026-04-14 20:54 66.41740 14.66571 3510 ft 115 kts 232°
2026-04-14 20:54 66.41225 14.65000 3506 ft 119 kts 232°
2026-04-14 20:54 66.40710 14.63421 3503 ft 116 kts 232°
2026-04-14 20:54 66.40205 14.61878 3500 ft 114 kts 232°
2026-04-14 20:55 66.39708 14.60357 3498 ft 113 kts 232°
2026-04-14 20:55 66.39221 14.58856 3495 ft 113 kts 235°
2026-04-14 20:55 66.39032 14.57013 3497 ft 115 kts 276°
2026-04-14 20:55 66.39369 14.55197 3509 ft 121 kts 314°
2026-04-14 20:56 66.40013 14.53773 3510 ft 127 kts 316°
2026-04-14 20:56 66.40564 14.52037 3510 ft 131 kts 289°
2026-04-14 20:56 66.40612 14.49758 3513 ft 135 kts 258°
2026-04-14 20:56 66.40406 14.47467 3508 ft 135 kts 259°
2026-04-14 20:57 66.40212 14.45179 3511 ft 135 kts 259°
2026-04-14 20:57 66.40034 14.42872 3503 ft 139 kts 259°
2026-04-14 20:57 66.39796 14.40551 3501 ft 138 kts 248°
2026-04-14 20:57 66.39219 14.38632 3503 ft 139 kts 231°
2026-04-14 20:58 66.38602 14.36765 3503 ft 140 kts 232°
2026-04-14 20:58 66.37984 14.34869 3514 ft 141 kts 232°
2026-04-14 20:58 66.37355 14.32960 3503 ft 142 kts 231°
2026-04-14 20:58 66.36539 14.31582 3497 ft 145 kts 199°
2026-04-14 20:59 66.35526 14.31480 3503 ft 151 kts 168°
2026-04-14 20:59 66.34583 14.32559 3500 ft 151 kts 152°
2026-04-14 20:59 66.33669 14.33822 3499 ft 150 kts 153°
2026-04-14 20:59 66.32753 14.35039 3500 ft 149 kts 153°
2026-04-14 21:00 66.31835 14.36247 3498 ft 149 kts 154°
2026-04-14 21:00 66.30994 14.37722 3496 ft 150 kts 130°
2026-04-14 21:00 66.30449 14.39925 3497 ft 149 kts 122°
2026-04-14 21:00 66.29906 14.42114 3498 ft 148 kts 122°
2026-04-14 21:01 66.29370 14.44291 3498 ft 148 kts 122°
2026-04-14 21:01 66.28832 14.46477 3495 ft 148 kts 122°
2026-04-14 21:01 66.28302 14.48648 3492 ft 146 kts 122°
2026-04-14 21:01 66.27777 14.50774 3495 ft 146 kts 122°
2026-04-14 21:02 66.27247 14.52917 3489 ft 145 kts 124°
2026-04-14 21:02 66.26503 14.54525 3490 ft 143 kts 157°
2026-04-14 21:02 66.25547 14.55045 3500 ft 141 kts 178°
2026-04-14 21:02 66.24564 14.55248 3503 ft 143 kts 176°
2026-04-14 21:03 66.23575 14.55466 3501 ft 142 kts 177°
2026-04-14 21:03 66.22595 14.55681 3498 ft 141 kts 177°
2026-04-14 21:03 66.21618 14.55896 3501 ft 142 kts 176°
2026-04-14 21:03 66.20630 14.56116 3498 ft 143 kts 177°
2026-04-14 21:04 66.19659 14.56324 3500 ft 142 kts 177°
2026-04-14 21:04 66.18676 14.56541 3500 ft 142 kts 176°
2026-04-14 21:04 66.17692 14.56761 3502 ft 143 kts 177°
2026-04-14 21:04 66.16705 14.56980 3493 ft 141 kts 177°
2026-04-14 21:05 66.15731 14.57190 3500 ft 140 kts 177°
2026-04-14 21:05 66.14760 14.57403 3498 ft 140 kts 177°
2026-04-14 21:05 66.13806 14.57815 3490 ft 141 kts 158°
2026-04-14 21:05 66.13062 14.59376 3496 ft 143 kts 125°
2026-04-14 21:06 66.12733 14.61690 3497 ft 145 kts 100°
2026-04-14 21:06 66.12548 14.64122 3504 ft 147 kts 102°
2026-04-14 21:06 66.12341 14.66605 3501 ft 147 kts 102°
2026-04-14 21:06 66.12140 14.69072 3503 ft 146 kts 102°
2026-04-14 21:07 66.11941 14.71522 3501 ft 145 kts 101°
2026-04-14 21:07 66.11744 14.73959 3504 ft 145 kts 102°
2026-04-14 21:07 66.11481 14.76340 3498 ft 144 kts 119°
2026-04-14 21:07 66.10804 14.78093 3495 ft 141 kts 149°
2026-04-14 21:08 66.09979 14.79346 3502 ft 141 kts 149°
2026-04-14 21:08 66.09149 14.80635 3497 ft 141 kts 149°
2026-04-14 21:08 66.08317 14.81926 3498 ft 141 kts 149°
2026-04-14 21:08 66.07483 14.83212 3498 ft 141 kts 149°
2026-04-14 21:09 66.06651 14.84500 3498 ft 141 kts 150°
2026-04-14 21:09 66.05817 14.85784 3498 ft 141 kts 149°
2026-04-14 21:09 66.04985 14.87066 3498 ft 141 kts 149°
2026-04-14 21:09 66.04208 14.88525 3497 ft 142 kts 129°
2026-04-14 21:10 66.03824 14.90760 3494 ft 144 kts 102°
2026-04-14 21:10 66.03617 14.93159 3496 ft 143 kts 103°
2026-04-14 21:10 66.03399 14.95555 3497 ft 144 kts 103°
2026-04-14 21:10 66.03183 14.97920 3498 ft 144 kts 103°
2026-04-14 21:11 66.02965 15.00321 3504 ft 144 kts 103°
2026-04-14 21:11 66.02739 15.02711 3498 ft 144 kts 107°
2026-04-14 21:11 66.02192 15.04706 3496 ft 142 kts 141°
2026-04-14 21:11 66.01320 15.05743 3498 ft 140 kts 172°
2026-04-14 21:12 66.00370 15.05595 3498 ft 137 kts 198°
2026-04-14 21:12 65.99455 15.04954 3501 ft 137 kts 197°
2026-04-14 21:12 65.98537 15.04337 3502 ft 137 kts 197°
2026-04-14 21:12 65.97617 15.03714 3503 ft 137 kts 198°
2026-04-14 21:13 65.96710 15.03100 3503 ft 137 kts 197°
2026-04-14 21:13 65.95792 15.02476 3503 ft 137 kts 197°
2026-04-14 21:13 65.94867 15.01846 3508 ft 139 kts 198°
2026-04-14 21:14 65.93041 15.00618 3498 ft 133 kts 197°
2026-04-14 21:14 65.92150 15.00014 3496 ft 133 kts 198°
2026-04-14 21:14 65.91252 14.99409 3498 ft 135 kts 197°
2026-04-14 21:14 65.90315 14.99261 3498 ft 139 kts 167°
2026-04-14 21:15 65.89411 15.00124 3382 ft 145 kts 160°
2026-04-14 21:15 65.88476 15.00721 3052 ft 135 kts 173°
2026-04-14 21:15 65.87581 15.01059 2695 ft 130 kts 166°
2026-04-14 21:15 65.86794 15.01947 2733 ft 119 kts 149°
2026-04-14 21:16 65.86047 15.02809 2720 ft 122 kts 156°
2026-04-14 21:16 65.85274 15.03581 2741 ft 120 kts 167°
2026-04-14 21:16 65.84465 15.04123 2725 ft 124 kts 167°
2026-04-14 21:16 65.83543 15.04559 2585 ft 140 kts 172°
2026-04-14 21:17 65.82625 15.05454 2434 ft 143 kts 150°
2026-04-14 21:17 65.81847 15.06713 1875 ft 127 kts 143°
2026-04-14 21:17 65.81187 15.07557 1623 ft 84 kts 153°
2026-04-14 21:17 65.80777 15.08061 1618 ft 48 kts 156°
2026-04-14 21:18 65.80713 15.08193 1613 ft 11 kts 307°
2026-04-14 21:18 65.80844 15.08035 1612 ft 29 kts 334°
2026-04-14 21:18 65.81009 15.07790 1612 ft 26 kts 333°
2026-04-14 21:18 65.81143 15.07701 1611 ft 17 kts 58°
2026-04-14 21:19 65.81200 15.07959 1612 ft 12 kts 66°
2026-04-14 21:19 65.81211 15.08017 1612 ft 0 kts 65°